Clemency, Luxembourg
Current Conditions -  °F | °C
As of 6:50 AM on Saturday 01 Nov 2014 (Local Time) from ELLX Reporting Station
Moderate Fog Moderate Fog  
Wind Chill: 48°   Ceiling: Unl
Heat Index: 48°   Visibility: 0.03mi
Dew Point: 48°   Wind: 0mph
Humidity: 100%   Direction: NA
Pressure: 30.18"   Gusts: NA
Location:  49.6°N, 5.88°E
Report Text: ELLX 010550Z 00000KT 0050 R24/0225V0300N FG NSC 09/09 Q1022 NOSIG
Loading
Personal Weather Stations






























Interactive Weather Map
Tropical Storm Tracking
New forecast layout! Learn more

10-Day Weather Forecast

Advertisements
Track Severe Weather on mobile